sensor_id;sensor_type;location;lat;lon;timestamp;temperature;humidity
61374;DHT22;47242;48.158;-1.586;2022-08-20T00:01:05;17.80;75.30
61374;DHT22;47242;48.158;-1.586;2022-08-20T00:03:37;17.80;76.60
61374;DHT22;47242;48.158;-1.586;2022-08-20T00:08:35;17.80;75.80
61374;DHT22;47242;48.158;-1.586;2022-08-20T00:11:03;17.90;75.40
61374;DHT22;47242;48.158;-1.586;2022-08-20T00:13:32;17.80;75.30
61374;DHT22;47242;48.158;-1.586;2022-08-20T00:15:59;17.80;75.10
61374;DHT22;47242;48.158;-1.586;2022-08-20T00:18:25;17.90;75.00
61374;DHT22;47242;48.158;-1.586;2022-08-20T00:21:05;17.80;75.10
61374;DHT22;47242;48.158;-1.586;2022-08-20T00:23:30;17.80;75.50
61374;DHT22;47242;48.158;-1.586;2022-08-20T00:25:56;17.80;76.30
61374;DHT22;47242;48.158;-1.586;2022-08-20T00:28:22;17.80;76.20
61374;DHT22;47242;48.158;-1.586;2022-08-20T00:30:48;17.80;75.70
61374;DHT22;47242;48.158;-1.586;2022-08-20T00:33:17;17.80;75.40
61374;DHT22;47242;48.158;-1.586;2022-08-20T00:35:47;17.80;75.30
61374;DHT22;47242;48.158;-1.586;2022-08-20T00:38:13;17.80;75.80
61374;DHT22;47242;48.158;-1.586;2022-08-20T00:40:43;17.80;76.30
61374;DHT22;47242;48.158;-1.586;2022-08-20T00:46:32;17.90;76.20
61374;DHT22;47242;48.158;-1.586;2022-08-20T00:48:59;17.90;76.30
61374;DHT22;47242;48.158;-1.586;2022-08-20T00:54:15;17.90;75.80
61374;DHT22;47242;48.158;-1.586;2022-08-20T00:56:49;17.90;76.40
61374;DHT22;47242;48.158;-1.586;2022-08-20T00:59:23;17.80;77.30
61374;DHT22;47242;48.158;-1.586;2022-08-20T01:01:50;17.80;77.10
61374;DHT22;47242;48.158;-1.586;2022-08-20T01:04:16;17.80;77.10
61374;DHT22;47242;48.158;-1.586;2022-08-20T01:06:44;17.80;76.40
61374;DHT22;47242;48.158;-1.586;2022-08-20T01:09:12;17.80;76.80
61374;DHT22;47242;48.158;-1.586;2022-08-20T01:11:38;17.70;76.80
61374;DHT22;47242;48.158;-1.586;2022-08-20T01:14:08;17.80;76.50
61374;DHT22;47242;48.158;-1.586;2022-08-20T01:16:58;17.70;77.00
61374;DHT22;47242;48.158;-1.586;2022-08-20T01:19:36;17.70;77.50
61374;DHT22;47242;48.158;-1.586;2022-08-20T01:22:03;17.70;77.80
61374;DHT22;47242;48.158;-1.586;2022-08-20T01:24:51;17.80;77.40
61374;DHT22;47242;48.158;-1.586;2022-08-20T01:27:20;17.80;76.90
61374;DHT22;47242;48.158;-1.586;2022-08-20T01:29:47;17.80;76.80
61374;DHT22;47242;48.158;-1.586;2022-08-20T01:32:14;17.80;77.10
61374;DHT22;47242;48.158;-1.586;2022-08-20T01:34:40;17.80;77.50
61374;DHT22;47242;48.158;-1.586;2022-08-20T01:37:05;17.80;77.10
61374;DHT22;47242;48.158;-1.586;2022-08-20T01:39:34;17.80;77.00
61374;DHT22;47242;48.158;-1.586;2022-08-20T01:44:50;17.70;77.00
61374;DHT22;47242;48.158;-1.586;2022-08-20T01:47:29;17.70;77.40
61374;DHT22;47242;48.158;-1.586;2022-08-20T01:50:20;17.70;77.60
61374;DHT22;47242;48.158;-1.586;2022-08-20T01:52:58;17.60;77.70
61374;DHT22;47242;48.158;-1.586;2022-08-20T01:55:25;17.70;77.60
61374;DHT22;47242;48.158;-1.586;2022-08-20T01:57:54;17.60;77.60
61374;DHT22;47242;48.158;-1.586;2022-08-20T02:00:24;17.60;78.10
61374;DHT22;47242;48.158;-1.586;2022-08-20T02:02:50;17.50;77.80
61374;DHT22;47242;48.158;-1.586;2022-08-20T02:05:17;17.60;77.40
61374;DHT22;47242;48.158;-1.586;2022-08-20T02:07:42;17.60;77.40
61374;DHT22;47242;48.158;-1.586;2022-08-20T02:10:11;17.60;77.50
61374;DHT22;47242;48.158;-1.586;2022-08-20T02:12:37;17.50;77.50
61374;DHT22;47242;48.158;-1.586;2022-08-20T02:15:06;17.50;77.60
61374;DHT22;47242;48.158;-1.586;2022-08-20T02:17:35;17.50;77.70
61374;DHT22;47242;48.158;-1.586;2022-08-20T02:25:12;17.50;77.40
61374;DHT22;47242;48.158;-1.586;2022-08-20T02:27:41;17.40;77.90
61374;DHT22;47242;48.158;-1.586;2022-08-20T02:30:12;17.40;77.40
61374;DHT22;47242;48.158;-1.586;2022-08-20T02:32:39;17.30;77.40
61374;DHT22;47242;48.158;-1.586;2022-08-20T02:35:07;17.30;77.40
61374;DHT22;47242;48.158;-1.586;2022-08-20T02:37:53;17.20;77.70
61374;DHT22;47242;48.158;-1.586;2022-08-20T02:40:21;17.20;77.80
61374;DHT22;47242;48.158;-1.586;2022-08-20T02:42:47;17.10;77.80
61374;DHT22;47242;48.158;-1.586;2022-08-20T02:45:15;17.10;77.40
61374;DHT22;47242;48.158;-1.586;2022-08-20T02:47:43;17.10;77.90
61374;DHT22;47242;48.158;-1.586;2022-08-20T02:50:16;17.00;77.80
61374;DHT22;47242;48.158;-1.586;2022-08-20T02:52:42;17.00;77.70
61374;DHT22;47242;48.158;-1.586;2022-08-20T02:55:09;16.90;77.90
61374;DHT22;47242;48.158;-1.586;2022-08-20T02:57:35;16.90;78.00
61374;DHT22;47242;48.158;-1.586;2022-08-20T03:00:05;16.90;77.80
61374;DHT22;47242;48.158;-1.586;2022-08-20T03:02:31;16.80;77.70
61374;DHT22;47242;48.158;-1.586;2022-08-20T03:04:57;16.80;78.10
61374;DHT22;47242;48.158;-1.586;2022-08-20T03:07:22;16.80;77.80
61374;DHT22;47242;48.158;-1.586;2022-08-20T03:09:48;16.80;77.90
61374;DHT22;47242;48.158;-1.586;2022-08-20T03:12:14;16.80;77.70
61374;DHT22;47242;48.158;-1.586;2022-08-20T03:14:40;16.80;77.70
61374;DHT22;47242;48.158;-1.586;2022-08-20T03:17:05;16.80;77.90
61374;DHT22;47242;48.158;-1.586;2022-08-20T03:19:31;16.80;77.90
61374;DHT22;47242;48.158;-1.586;2022-08-20T03:21:57;16.80;77.90
61374;DHT22;47242;48.158;-1.586;2022-08-20T03:24:22;16.80;78.00
61374;DHT22;47242;48.158;-1.586;2022-08-20T03:26:48;16.80;77.90
61374;DHT22;47242;48.158;-1.586;2022-08-20T03:29:14;16.80;77.80
61374;DHT22;47242;48.158;-1.586;2022-08-20T03:31:40;16.70;77.90
61374;DHT22;47242;48.158;-1.586;2022-08-20T03:34:05;16.70;78.30
61374;DHT22;47242;48.158;-1.586;2022-08-20T03:36:31;16.70;78.60
61374;DHT22;47242;48.158;-1.586;2022-08-20T03:38:58;16.60;79.00
61374;DHT22;47242;48.158;-1.586;2022-08-20T03:41:24;16.70;79.10
61374;DHT22;47242;48.158;-1.586;2022-08-20T03:43:52;16.70;78.80
61374;DHT22;47242;48.158;-1.586;2022-08-20T03:46:17;16.70;78.30
61374;DHT22;47242;48.158;-1.586;2022-08-20T03:48:43;16.70;78.30
61374;DHT22;47242;48.158;-1.586;2022-08-20T03:51:09;16.60;78.30
61374;DHT22;47242;48.158;-1.586;2022-08-20T03:53:34;16.60;78.50
61374;DHT22;47242;48.158;-1.586;2022-08-20T03:56:03;16.60;78.10
61374;DHT22;47242;48.158;-1.586;2022-08-20T03:58:31;16.60;77.80
61374;DHT22;47242;48.158;-1.586;2022-08-20T04:00:57;16.60;77.80
61374;DHT22;47242;48.158;-1.586;2022-08-20T04:03:23;16.60;78.00
61374;DHT22;47242;48.158;-1.586;2022-08-20T04:05:59;16.60;78.30
61374;DHT22;47242;48.158;-1.586;2022-08-20T04:08:27;16.50;78.30
61374;DHT22;47242;48.158;-1.586;2022-08-20T04:10:56;16.50;78.10
61374;DHT22;47242;48.158;-1.586;2022-08-20T04:13:23;16.50;78.00
61374;DHT22;47242;48.158;-1.586;2022-08-20T04:15:50;16.50;77.80
61374;DHT22;47242;48.158;-1.586;2022-08-20T04:18:20;16.50;77.50
61374;DHT22;47242;48.158;-1.586;2022-08-20T04:20:49;16.50;78.00
61374;DHT22;47242;48.158;-1.586;2022-08-20T04:23:16;16.40;78.10
61374;DHT22;47242;48.158;-1.586;2022-08-20T04:25:47;16.30;78.20
61374;DHT22;47242;48.158;-1.586;2022-08-20T04:28:23;16.40;78.20
61374;DHT22;47242;48.158;-1.586;2022-08-20T04:30:53;16.30;78.10
61374;DHT22;47242;48.158;-1.586;2022-08-20T04:33:20;16.30;78.20
61374;DHT22;47242;48.158;-1.586;2022-08-20T04:35:46;16.30;78.10
61374;DHT22;47242;48.158;-1.586;2022-08-20T04:38:14;16.40;78.00
61374;DHT22;47242;48.158;-1.586;2022-08-20T04:40:40;16.40;78.30
61374;DHT22;47242;48.158;-1.586;2022-08-20T04:43:19;16.40;78.10
61374;DHT22;47242;48.158;-1.586;2022-08-20T04:45:47;16.40;78.00
61374;DHT22;47242;48.158;-1.586;2022-08-20T04:48:13;16.30;78.00
61374;DHT22;47242;48.158;-1.586;2022-08-20T04:50:40;16.30;77.90
61374;DHT22;47242;48.158;-1.586;2022-08-20T04:53:08;16.30;77.90
61374;DHT22;47242;48.158;-1.586;2022-08-20T04:55:38;16.30;78.10
61374;DHT22;47242;48.158;-1.586;2022-08-20T04:58:17;16.30;78.50
61374;DHT22;47242;48.158;-1.586;2022-08-20T05:00:57;16.40;78.60
61374;DHT22;47242;48.158;-1.586;2022-08-20T05:03:24;16.30;78.60
61374;DHT22;47242;48.158;-1.586;2022-08-20T05:05:51;16.40;78.60
61374;DHT22;47242;48.158;-1.586;2022-08-20T05:08:18;16.50;78.60
61374;DHT22;47242;48.158;-1.586;2022-08-20T05:10:45;16.50;78.70
61374;DHT22;47242;48.158;-1.586;2022-08-20T05:13:11;16.50;78.70
61374;DHT22;47242;48.158;-1.586;2022-08-20T05:15:37;16.50;78.60
61374;DHT22;47242;48.158;-1.586;2022-08-20T05:18:04;16.50;78.70
61374;DHT22;47242;48.158;-1.586;2022-08-20T05:20:34;16.60;78.60
61374;DHT22;47242;48.158;-1.586;2022-08-20T05:23:05;16.60;78.50
61374;DHT22;47242;48.158;-1.586;2022-08-20T05:25:32;16.60;78.60
61374;DHT22;47242;48.158;-1.586;2022-08-20T05:28:02;16.60;78.90
61374;DHT22;47242;48.158;-1.586;2022-08-20T05:30:28;16.60;78.40
61374;DHT22;47242;48.158;-1.586;2022-08-20T05:33:02;16.60;78.60
61374;DHT22;47242;48.158;-1.586;2022-08-20T05:35:29;16.50;79.40
61374;DHT22;47242;48.158;-1.586;2022-08-20T05:37:55;16.60;79.00
61374;DHT22;47242;48.158;-1.586;2022-08-20T05:40:22;16.50;79.10
61374;DHT22;47242;48.158;-1.586;2022-08-20T05:42:49;16.50;79.00
61374;DHT22;47242;48.158;-1.586;2022-08-20T05:45:15;16.70;79.10
61374;DHT22;47242;48.158;-1.586;2022-08-20T05:47:42;16.70;79.10
61374;DHT22;47242;48.158;-1.586;2022-08-20T05:50:09;16.70;78.90
61374;DHT22;47242;48.158;-1.586;2022-08-20T05:52:35;16.70;79.00
61374;DHT22;47242;48.158;-1.586;2022-08-20T05:55:03;16.80;79.20
61374;DHT22;47242;48.158;-1.586;2022-08-20T05:57:29;16.80;79.20
61374;DHT22;47242;48.158;-1.586;2022-08-20T05:59:55;16.80;79.10
61374;DHT22;47242;48.158;-1.586;2022-08-20T06:02:21;16.80;79.00
61374;DHT22;47242;48.158;-1.586;2022-08-20T06:05:05;16.80;79.10
61374;DHT22;47242;48.158;-1.586;2022-08-20T06:07:30;16.90;78.50
61374;DHT22;47242;48.158;-1.586;2022-08-20T06:09:56;17.00;78.50
61374;DHT22;47242;48.158;-1.586;2022-08-20T06:12:22;17.00;78.50
61374;DHT22;47242;48.158;-1.586;2022-08-20T06:14:47;17.10;78.50
61374;DHT22;47242;48.158;-1.586;2022-08-20T06:17:15;17.20;78.80
61374;DHT22;47242;48.158;-1.586;2022-08-20T06:19:43;17.30;78.80
61374;DHT22;47242;48.158;-1.586;2022-08-20T06:22:09;17.30;79.00
61374;DHT22;47242;48.158;-1.586;2022-08-20T06:24:34;17.30;78.50
61374;DHT22;47242;48.158;-1.586;2022-08-20T06:27:02;17.30;78.60
61374;DHT22;47242;48.158;-1.586;2022-08-20T06:29:29;17.30;78.70
61374;DHT22;47242;48.158;-1.586;2022-08-20T06:31:58;17.50;78.70
61374;DHT22;47242;48.158;-1.586;2022-08-20T06:34:24;17.50;78.80
61374;DHT22;47242;48.158;-1.586;2022-08-20T06:36:53;17.60;78.90
61374;DHT22;47242;48.158;-1.586;2022-08-20T06:39:19;17.70;79.00
61374;DHT22;47242;48.158;-1.586;2022-08-20T06:41:44;17.80;78.40
61374;DHT22;47242;48.158;-1.586;2022-08-20T06:44:10;17.80;78.40
61374;DHT22;47242;48.158;-1.586;2022-08-20T06:46:37;17.90;78.50
61374;DHT22;47242;48.158;-1.586;2022-08-20T06:49:04;17.90;77.60
61374;DHT22;47242;48.158;-1.586;2022-08-20T06:51:30;18.10;77.60
61374;DHT22;47242;48.158;-1.586;2022-08-20T06:53:56;18.10;77.60
61374;DHT22;47242;48.158;-1.586;2022-08-20T06:56:22;18.20;77.60
61374;DHT22;47242;48.158;-1.586;2022-08-20T06:58:48;18.30;77.10
61374;DHT22;47242;48.158;-1.586;2022-08-20T07:01:14;18.30;76.90
61374;DHT22;47242;48.158;-1.586;2022-08-20T07:03:40;18.30;76.30
61374;DHT22;47242;48.158;-1.586;2022-08-20T07:06:09;18.40;75.60
61374;DHT22;47242;48.158;-1.586;2022-08-20T07:08:35;18.30;75.80
61374;DHT22;47242;48.158;-1.586;2022-08-20T07:11:01;18.40;76.10
61374;DHT22;47242;48.158;-1.586;2022-08-20T07:13:28;18.60;75.80
61374;DHT22;47242;48.158;-1.586;2022-08-20T07:15:54;18.70;75.90
61374;DHT22;47242;48.158;-1.586;2022-08-20T07:18:21;18.70;75.10
61374;DHT22;47242;48.158;-1.586;2022-08-20T07:20:47;18.80;74.90
61374;DHT22;47242;48.158;-1.586;2022-08-20T07:23:13;18.80;74.80
61374;DHT22;47242;48.158;-1.586;2022-08-20T07:25:41;18.80;74.90
61374;DHT22;47242;48.158;-1.586;2022-08-20T07:28:28;18.90;74.90
61374;DHT22;47242;48.158;-1.586;2022-08-20T07:30:55;19.00;74.70
61374;DHT22;47242;48.158;-1.586;2022-08-20T07:33:40;19.10;74.30
61374;DHT22;47242;48.158;-1.586;2022-08-20T07:36:07;19.10;73.90
61374;DHT22;47242;48.158;-1.586;2022-08-20T07:38:34;19.30;73.30
61374;DHT22;47242;48.158;-1.586;2022-08-20T07:41:03;19.50;72.90
61374;DHT22;47242;48.158;-1.586;2022-08-20T07:43:31;20.00;71.60
61374;DHT22;47242;48.158;-1.586;2022-08-20T07:45:59;20.00;70.90
61374;DHT22;47242;48.158;-1.586;2022-08-20T07:48:27;20.00;71.00
61374;DHT22;47242;48.158;-1.586;2022-08-20T07:50:57;20.10;70.70
61374;DHT22;47242;48.158;-1.586;2022-08-20T07:53:25;20.70;69.80
61374;DHT22;47242;48.158;-1.586;2022-08-20T07:55:50;22.30;66.80
61374;DHT22;47242;48.158;-1.586;2022-08-20T07:58:19;24.90;60.30
61374;DHT22;47242;48.158;-1.586;2022-08-20T08:00:45;26.90;52.50
61374;DHT22;47242;48.158;-1.586;2022-08-20T08:03:11;28.40;50.00
61374;DHT22;47242;48.158;-1.586;2022-08-20T08:05:39;29.70;46.80
61374;DHT22;47242;48.158;-1.586;2022-08-20T08:08:08;30.20;43.70
61374;DHT22;47242;48.158;-1.586;2022-08-20T08:10:35;30.40;43.40
61374;DHT22;47242;48.158;-1.586;2022-08-20T08:13:04;30.30;43.00
61374;DHT22;47242;48.158;-1.586;2022-08-20T08:15:32;29.60;44.30
61374;DHT22;47242;48.158;-1.586;2022-08-20T08:18:03;28.80;45.30
61374;DHT22;47242;48.158;-1.586;2022-08-20T08:20:38;28.20;46.60
61374;DHT22;47242;48.158;-1.586;2022-08-20T08:23:06;27.60;47.90
61374;DHT22;47242;48.158;-1.586;2022-08-20T08:25:32;27.00;48.40
61374;DHT22;47242;48.158;-1.586;2022-08-20T08:27:58;26.50;50.20
61374;DHT22;47242;48.158;-1.586;2022-08-20T08:30:26;26.30;51.00
61374;DHT22;47242;48.158;-1.586;2022-08-20T08:32:53;26.30;50.80
61374;DHT22;47242;48.158;-1.586;2022-08-20T08:35:38;26.30;50.10
61374;DHT22;47242;48.158;-1.586;2022-08-20T08:38:04;26.00;50.40
61374;DHT22;47242;48.158;-1.586;2022-08-20T08:40:31;26.30;51.10
61374;DHT22;47242;48.158;-1.586;2022-08-20T08:43:00;26.60;50.50
61374;DHT22;47242;48.158;-1.586;2022-08-20T08:45:37;26.70;49.40
61374;DHT22;47242;48.158;-1.586;2022-08-20T08:48:18;26.90;48.20
61374;DHT22;47242;48.158;-1.586;2022-08-20T08:50:47;26.80;48.00
61374;DHT22;47242;48.158;-1.586;2022-08-20T08:53:24;26.20;48.90
61374;DHT22;47242;48.158;-1.586;2022-08-20T08:55:50;25.90;51.20
61374;DHT22;47242;48.158;-1.586;2022-08-20T08:58:16;25.70;51.20
61374;DHT22;47242;48.158;-1.586;2022-08-20T09:00:42;25.20;52.30
61374;DHT22;47242;48.158;-1.586;2022-08-20T09:03:16;25.00;53.20
61374;DHT22;47242;48.158;-1.586;2022-08-20T09:05:47;25.00;53.10
61374;DHT22;47242;48.158;-1.586;2022-08-20T09:08:16;25.30;52.60
61374;DHT22;47242;48.158;-1.586;2022-08-20T09:10:44;25.70;50.50
61374;DHT22;47242;48.158;-1.586;2022-08-20T09:13:10;26.60;49.40
61374;DHT22;47242;48.158;-1.586;2022-08-20T09:15:36;27.50;47.00
61374;DHT22;47242;48.158;-1.586;2022-08-20T09:18:02;28.90;43.70
61374;DHT22;47242;48.158;-1.586;2022-08-20T09:20:30;29.10;42.60
61374;DHT22;47242;48.158;-1.586;2022-08-20T09:22:56;28.00;44.10
61374;DHT22;47242;48.158;-1.586;2022-08-20T09:25:22;28.80;43.30
61374;DHT22;47242;48.158;-1.586;2022-08-20T09:27:47;27.90;43.60
61374;DHT22;47242;48.158;-1.586;2022-08-20T09:30:14;27.20;45.50
61374;DHT22;47242;48.158;-1.586;2022-08-20T09:32:40;26.50;47.00
61374;DHT22;47242;48.158;-1.586;2022-08-20T09:35:07;28.80;43.60
61374;DHT22;47242;48.158;-1.586;2022-08-20T09:37:33;30.30;40.30
61374;DHT22;47242;48.158;-1.586;2022-08-20T09:39:59;31.30;37.10
61374;DHT22;47242;48.158;-1.586;2022-08-20T09:42:31;32.30;36.50
61374;DHT22;47242;48.158;-1.586;2022-08-20T09:44:57;32.40;35.60
61374;DHT22;47242;48.158;-1.586;2022-08-20T09:47:24;32.30;34.70
61374;DHT22;47242;48.158;-1.586;2022-08-20T09:49:50;33.30;34.00
61374;DHT22;47242;48.158;-1.586;2022-08-20T09:52:23;34.20;33.40
61374;DHT22;47242;48.158;-1.586;2022-08-20T09:54:50;33.30;33.70
61374;DHT22;47242;48.158;-1.586;2022-08-20T09:57:17;33.30;34.00
61374;DHT22;47242;48.158;-1.586;2022-08-20T09:59:54;32.30;34.80
61374;DHT22;47242;48.158;-1.586;2022-08-20T10:02:22;32.50;35.60
61374;DHT22;47242;48.158;-1.586;2022-08-20T10:04:47;33.20;33.90
61374;DHT22;47242;48.158;-1.586;2022-08-20T10:07:13;33.80;32.90
61374;DHT22;47242;48.158;-1.586;2022-08-20T10:09:39;34.30;32.60
61374;DHT22;47242;48.158;-1.586;2022-08-20T10:12:05;34.80;31.70
61374;DHT22;47242;48.158;-1.586;2022-08-20T10:14:31;35.10;31.30
61374;DHT22;47242;48.158;-1.586;2022-08-20T10:16:58;35.20;30.30
61374;DHT22;47242;48.158;-1.586;2022-08-20T10:19:24;35.00;30.30
61374;DHT22;47242;48.158;-1.586;2022-08-20T10:21:51;34.90;30.50
61374;DHT22;47242;48.158;-1.586;2022-08-20T10:24:18;34.30;31.40
61374;DHT22;47242;48.158;-1.586;2022-08-20T10:26:44;34.30;30.60
61374;DHT22;47242;48.158;-1.586;2022-08-20T10:29:10;33.90;30.30
61374;DHT22;47242;48.158;-1.586;2022-08-20T10:31:35;33.40;29.90
61374;DHT22;47242;48.158;-1.586;2022-08-20T10:34:01;32.50;32.70
61374;DHT22;47242;48.158;-1.586;2022-08-20T10:36:27;31.70;34.50
61374;DHT22;47242;48.158;-1.586;2022-08-20T10:38:53;30.80;34.00
61374;DHT22;47242;48.158;-1.586;2022-08-20T10:41:18;30.00;35.20
61374;DHT22;47242;48.158;-1.586;2022-08-20T10:43:44;29.70;35.50
61374;DHT22;47242;48.158;-1.586;2022-08-20T10:46:10;29.30;38.10
61374;DHT22;47242;48.158;-1.586;2022-08-20T10:48:37;28.90;38.70
61374;DHT22;47242;48.158;-1.586;2022-08-20T10:51:03;28.50;36.40
61374;DHT22;47242;48.158;-1.586;2022-08-20T10:53:28;28.30;37.40
61374;DHT22;47242;48.158;-1.586;2022-08-20T10:55:55;28.20;39.70
61374;DHT22;47242;48.158;-1.586;2022-08-20T10:58:25;28.20;39.30
61374;DHT22;47242;48.158;-1.586;2022-08-20T11:00:51;28.10;39.60
61374;DHT22;47242;48.158;-1.586;2022-08-20T11:03:16;28.20;40.70
61374;DHT22;47242;48.158;-1.586;2022-08-20T11:05:42;28.00;40.80
61374;DHT22;47242;48.158;-1.586;2022-08-20T11:08:08;28.00;40.70
61374;DHT22;47242;48.158;-1.586;2022-08-20T11:10:34;28.10;40.00
61374;DHT22;47242;48.158;-1.586;2022-08-20T11:13:02;28.10;39.60
61374;DHT22;47242;48.158;-1.586;2022-08-20T11:15:28;28.00;40.30
61374;DHT22;47242;48.158;-1.586;2022-08-20T11:17:54;27.80;41.40
61374;DHT22;47242;48.158;-1.586;2022-08-20T11:20:22;27.50;41.60
61374;DHT22;47242;48.158;-1.586;2022-08-20T11:22:51;27.30;41.50
61374;DHT22;47242;48.158;-1.586;2022-08-20T11:25:17;27.10;40.70
61374;DHT22;47242;48.158;-1.586;2022-08-20T11:27:46;27.00;41.90
61374;DHT22;47242;48.158;-1.586;2022-08-20T11:30:17;27.00;41.70
61374;DHT22;47242;48.158;-1.586;2022-08-20T11:32:43;27.00;39.50
61374;DHT22;47242;48.158;-1.586;2022-08-20T11:35:09;26.80;39.80
61374;DHT22;47242;48.158;-1.586;2022-08-20T11:37:35;26.80;40.30
61374;DHT22;47242;48.158;-1.586;2022-08-20T11:40:01;26.80;40.70
61374;DHT22;47242;48.158;-1.586;2022-08-20T11:42:27;26.80;41.40
61374;DHT22;47242;48.158;-1.586;2022-08-20T11:44:52;26.80;40.50
61374;DHT22;47242;48.158;-1.586;2022-08-20T11:47:27;26.90;40.40
61374;DHT22;47242;48.158;-1.586;2022-08-20T11:50:10;26.90;40.70
61374;DHT22;47242;48.158;-1.586;2022-08-20T11:52:37;26.90;41.40
61374;DHT22;47242;48.158;-1.586;2022-08-20T11:55:04;26.80;41.20
61374;DHT22;47242;48.158;-1.586;2022-08-20T11:57:32;26.80;39.70
61374;DHT22;47242;48.158;-1.586;2022-08-20T11:59:59;26.70;41.40
61374;DHT22;47242;48.158;-1.586;2022-08-20T12:02:26;26.80;41.50
61374;DHT22;47242;48.158;-1.586;2022-08-20T12:04:52;26.40;41.10
61374;DHT22;47242;48.158;-1.586;2022-08-20T12:07:20;26.50;43.30
61374;DHT22;47242;48.158;-1.586;2022-08-20T12:09:47;26.60;42.00
61374;DHT22;47242;48.158;-1.586;2022-08-20T12:12:13;26.70;41.40
61374;DHT22;47242;48.158;-1.586;2022-08-20T12:14:39;26.80;42.00
61374;DHT22;47242;48.158;-1.586;2022-08-20T12:17:16;26.70;41.40
61374;DHT22;47242;48.158;-1.586;2022-08-20T12:19:46;26.80;40.80
61374;DHT22;47242;48.158;-1.586;2022-08-20T12:22:12;26.80;41.30
61374;DHT22;47242;48.158;-1.586;2022-08-20T12:24:37;26.90;41.60
61374;DHT22;47242;48.158;-1.586;2022-08-20T12:27:16;26.80;41.10
61374;DHT22;47242;48.158;-1.586;2022-08-20T12:29:43;26.80;42.10
61374;DHT22;47242;48.158;-1.586;2022-08-20T12:32:10;26.60;40.30
61374;DHT22;47242;48.158;-1.586;2022-08-20T12:34:37;26.40;40.40
61374;DHT22;47242;48.158;-1.586;2022-08-20T12:37:07;26.30;41.20
61374;DHT22;47242;48.158;-1.586;2022-08-20T12:39:34;26.10;41.30
61374;DHT22;47242;48.158;-1.586;2022-08-20T12:42:02;26.20;41.80
61374;DHT22;47242;48.158;-1.586;2022-08-20T12:44:31;26.20;42.10
61374;DHT22;47242;48.158;-1.586;2022-08-20T12:47:07;26.40;42.30
61374;DHT22;47242;48.158;-1.586;2022-08-20T12:49:34;26.40;41.20
61374;DHT22;47242;48.158;-1.586;2022-08-20T12:52:00;26.60;42.00
61374;DHT22;47242;48.158;-1.586;2022-08-20T12:54:26;26.70;42.70
61374;DHT22;47242;48.158;-1.586;2022-08-20T12:56:52;26.80;42.40
61374;DHT22;47242;48.158;-1.586;2022-08-20T12:59:18;26.70;42.20
61374;DHT22;47242;48.158;-1.586;2022-08-20T13:01:43;26.70;41.90
61374;DHT22;47242;48.158;-1.586;2022-08-20T13:04:09;26.70;41.10
61374;DHT22;47242;48.158;-1.586;2022-08-20T13:06:35;26.70;41.60
61374;DHT22;47242;48.158;-1.586;2022-08-20T13:09:01;26.80;41.70
61374;DHT22;47242;48.158;-1.586;2022-08-20T13:11:26;26.80;41.90
61374;DHT22;47242;48.158;-1.586;2022-08-20T13:13:52;26.90;42.60
61374;DHT22;47242;48.158;-1.586;2022-08-20T13:16:17;26.80;41.60
61374;DHT22;47242;48.158;-1.586;2022-08-20T13:18:43;26.80;42.10
61374;DHT22;47242;48.158;-1.586;2022-08-20T13:21:10;26.70;40.60
61374;DHT22;47242;48.158;-1.586;2022-08-20T13:23:35;26.60;41.10
61374;DHT22;47242;48.158;-1.586;2022-08-20T13:26:01;26.70;42.20
61374;DHT22;47242;48.158;-1.586;2022-08-20T13:28:27;26.80;41.50
61374;DHT22;47242;48.158;-1.586;2022-08-20T13:30:52;26.80;42.00
61374;DHT22;47242;48.158;-1.586;2022-08-20T13:33:18;26.90;41.50
61374;DHT22;47242;48.158;-1.586;2022-08-20T13:35:44;26.90;41.50
61374;DHT22;47242;48.158;-1.586;2022-08-20T13:38:09;27.00;42.60
61374;DHT22;47242;48.158;-1.586;2022-08-20T13:40:35;27.10;41.80
61374;DHT22;47242;48.158;-1.586;2022-08-20T13:43:00;27.10;41.70
61374;DHT22;47242;48.158;-1.586;2022-08-20T13:45:26;27.10;41.10
61374;DHT22;47242;48.158;-1.586;2022-08-20T13:47:53;27.10;40.40
61374;DHT22;47242;48.158;-1.586;2022-08-20T13:50:21;26.90;39.90
61374;DHT22;47242;48.158;-1.586;2022-08-20T13:52:47;26.90;41.50
61374;DHT22;47242;48.158;-1.586;2022-08-20T13:55:17;26.80;40.50
61374;DHT22;47242;48.158;-1.586;2022-08-20T13:57:43;26.50;40.20
61374;DHT22;47242;48.158;-1.586;2022-08-20T14:00:13;26.60;41.40
61374;DHT22;47242;48.158;-1.586;2022-08-20T14:02:40;26.60;40.30
61374;DHT22;47242;48.158;-1.586;2022-08-20T14:05:06;26.60;41.00
61374;DHT22;47242;48.158;-1.586;2022-08-20T14:07:32;26.70;41.30
61374;DHT22;47242;48.158;-1.586;2022-08-20T14:10:01;26.80;41.00
61374;DHT22;47242;48.158;-1.586;2022-08-20T14:12:28;26.80;41.60
61374;DHT22;47242;48.158;-1.586;2022-08-20T14:14:54;26.90;42.00
61374;DHT22;47242;48.158;-1.586;2022-08-20T14:19:50;26.90;39.60
61374;DHT22;47242;48.158;-1.586;2022-08-20T14:22:16;26.90;40.10
61374;DHT22;47242;48.158;-1.586;2022-08-20T14:24:43;26.90;41.10
61374;DHT22;47242;48.158;-1.586;2022-08-20T14:27:09;26.80;40.30
61374;DHT22;47242;48.158;-1.586;2022-08-20T14:29:38;26.80;38.40
61374;DHT22;47242;48.158;-1.586;2022-08-20T14:32:04;26.80;40.20
61374;DHT22;47242;48.158;-1.586;2022-08-20T14:34:30;26.80;40.50
61374;DHT22;47242;48.158;-1.586;2022-08-20T14:36:56;26.90;40.10
61374;DHT22;47242;48.158;-1.586;2022-08-20T14:39:33;27.00;40.40
61374;DHT22;47242;48.158;-1.586;2022-08-20T14:41:58;27.00;39.10
61374;DHT22;47242;48.158;-1.586;2022-08-20T14:44:24;27.00;39.20
61374;DHT22;47242;48.158;-1.586;2022-08-20T14:46:50;27.00;38.60
61374;DHT22;47242;48.158;-1.586;2022-08-20T14:49:15;27.00;38.30
61374;DHT22;47242;48.158;-1.586;2022-08-20T14:51:41;27.10;38.20
61374;DHT22;47242;48.158;-1.586;2022-08-20T14:54:07;27.00;37.70
61374;DHT22;47242;48.158;-1.586;2022-08-20T14:56:32;27.10;38.60
61374;DHT22;47242;48.158;-1.586;2022-08-20T14:58:58;27.10;37.40
61374;DHT22;47242;48.158;-1.586;2022-08-20T15:01:24;27.00;37.70
61374;DHT22;47242;48.158;-1.586;2022-08-20T15:03:49;27.00;38.40
61374;DHT22;47242;48.158;-1.586;2022-08-20T15:06:15;27.00;38.40
61374;DHT22;47242;48.158;-1.586;2022-08-20T15:08:41;26.90;38.40
61374;DHT22;47242;48.158;-1.586;2022-08-20T15:11:06;26.90;39.10
61374;DHT22;47242;48.158;-1.586;2022-08-20T15:13:33;26.90;39.50
61374;DHT22;47242;48.158;-1.586;2022-08-20T15:15:58;26.90;39.40
61374;DHT22;47242;48.158;-1.586;2022-08-20T15:18:24;27.00;39.60
61374;DHT22;47242;48.158;-1.586;2022-08-20T15:20:51;27.10;39.20
61374;DHT22;47242;48.158;-1.586;2022-08-20T15:23:16;27.10;38.40
61374;DHT22;47242;48.158;-1.586;2022-08-20T15:25:42;27.20;38.70
61374;DHT22;47242;48.158;-1.586;2022-08-20T15:28:08;27.20;38.80
61374;DHT22;47242;48.158;-1.586;2022-08-20T15:30:36;27.20;38.70
61374;DHT22;47242;48.158;-1.586;2022-08-20T15:33:02;27.10;38.60
61374;DHT22;47242;48.158;-1.586;2022-08-20T15:35:28;27.00;39.50
61374;DHT22;47242;48.158;-1.586;2022-08-20T15:37:55;26.90;39.40